Time;durP1;ratioP1;P1;durP2;ratioP2;P2;SDS_P1;SDS_P2;PMS_P1;PMS_P2;Temp;Humidity;BMP_temperature;BMP_pressure;BME280_temperature;BME280_humidity;BME280_pressure;Samples;Min_cycle;Max_cycle;Signal;HPM_P1;HPM_P2
2021/12/19 00:01:08;;;;;;;5.22;1.17;;;;;;;6.98;100.00;103488.34;5041262;28;20021;-75
2021/12/19 00:11:08;;;;;;;7.97;1.98;;;;;;;7.07;100.00;103470.53;5043823;28;20032;-76
2021/12/19 00:13:34;;;;;;;8.32;3.25;;;;;;;7.09;100.00;103466.06;5034872;28;20477;-75
2021/12/19 00:15:59;;;;;;;8.15;3.10;;;;;;;7.07;100.00;103470.53;5041829;28;20051;-75
2021/12/19 00:18:25;;;;;;;7.80;4.35;;;;;;;7.07;100.00;103457.38;5025755;28;20033;-75
2021/12/19 00:20:50;;;;;;;12.70;5.30;;;;;;;7.00;100.00;103455.00;5021716;28;20045;-75
2021/12/19 00:23:17;;;;;;;16.63;5.18;;;;;;;7.07;100.00;103462.63;5045143;28;20393;-75
2021/12/19 00:25:43;;;;;;;10.45;4.55;;;;;;;7.08;100.00;103461.75;5042026;28;20028;-75
2021/12/19 00:28:09;;;;;;;10.43;4.47;;;;;;;7.11;100.00;103454.56;5037928;28;20028;-75
2021/12/19 00:30:34;;;;;;;12.07;5.13;;;;;;;7.01;100.00;103437.47;5038533;28;20176;-76
2021/12/19 00:33:00;;;;;;;8.82;4.60;;;;;;;7.12;100.00;103455.41;5022546;28;20121;-76
2021/12/19 00:35:25;;;;;;;14.55;4.22;;;;;;;7.09;100.00;103445.06;5038951;28;20489;-75
2021/12/19 00:37:52;;;;;;;14.63;5.43;;;;;;;7.13;100.00;103442.22;5037177;28;20501;-75
2021/12/19 00:40:19;;;;;;;9.13;4.85;;;;;;;7.09;100.00;103440.66;5041297;28;20033;-75
2021/12/19 00:42:51;;;;;;;13.70;6.15;;;;;;;7.15;100.00;103450.06;5038416;28;20115;-75
2021/12/19 00:45:26;;;;;;;13.40;5.10;;;;;;;7.08;100.00;103427.59;5029053;28;20168;-75
2021/12/19 00:47:52;;;;;;;10.75;3.60;;;;;;;7.08;100.00;103425.81;5041837;28;20528;-75
2021/12/19 00:50:18;;;;;;;7.80;3.60;;;;;;;7.12;100.00;103435.28;5047945;28;20067;-75
2021/12/19 00:52:46;;;;;;;7.93;2.85;;;;;;;6.97;100.00;103421.00;5039342;28;20033;-75
2021/12/19 00:55:15;;;;;;;3.50;1.88;;;;;;;7.03;100.00;103425.13;5043739;28;20029;-75
2021/12/19 00:57:41;;;;;;;9.02;1.75;;;;;;;6.85;100.00;103408.38;5043283;28;20025;-76
2021/12/19 01:00:09;;;;;;;5.80;2.13;;;;;;;7.04;100.00;103439.16;5029955;28;20587;-75
2021/12/19 01:02:35;;;;;;;4.80;1.88;;;;;;;6.97;100.00;103428.03;5044491;28;20049;-75
2021/12/19 01:05:00;;;;;;;3.90;1.40;;;;;;;6.96;100.00;103428.94;5051573;28;20043;-75
2021/12/19 01:07:26;;;;;;;2.95;1.48;;;;;;;6.95;100.00;103425.47;5043235;28;20037;-75
2021/12/19 01:09:51;;;;;;;2.83;1.05;;;;;;;6.82;100.00;103412.91;5038155;28;20789;-75
2021/12/19 01:12:17;;;;;;;7.60;1.58;;;;;;;6.71;100.00;103392.34;5048407;28;20116;-75
2021/12/19 01:14:43;;;;;;;4.70;1.63;;;;;;;6.83;100.00;103402.34;5042408;28;20036;-75
2021/12/19 01:17:08;;;;;;;3.38;0.82;;;;;;;6.90;100.00;103429.19;5036919;28;20025;-76
2021/12/19 01:19:34;;;;;;;6.53;0.80;;;;;;;6.88;100.00;103429.28;5050283;28;20032;-75
2021/12/19 01:22:00;;;;;;;1.77;0.77;;;;;;;6.89;100.00;103425.72;5041379;28;20033;-75
2021/12/19 01:24:25;;;;;;;3.28;0.60;;;;;;;6.87;100.00;103424.06;5045216;28;20033;-75
2021/12/19 01:26:51;;;;;;;1.95;0.60;;;;;;;6.62;100.00;103382.22;5042615;28;20032;-75
2021/12/19 01:29:16;;;;;;;6.38;0.65;;;;;;;6.83;100.00;103410.22;5042187;28;20040;-75
2021/12/19 01:31:43;;;;;;;1.27;0.95;;;;;;;6.68;100.00;103380.19;5045132;28;20362;-75
2021/12/19 01:34:12;;;;;;;1.52;0.40;;;;;;;6.79;100.00;103399.00;5042028;28;20615;-75
2021/12/19 01:36:40;;;;;;;0.32;0.20;;;;;;;6.75;100.00;103388.66;5043613;28;20040;-75
2021/12/19 01:39:06;;;;;;;1.60;0.40;;;;;;;6.80;100.00;103397.22;5043112;28;20103;-75
2021/12/19 01:41:31;;;;;;;0.73;0.57;;;;;;;6.65;100.00;103371.59;5042091;28;20478;-76
2021/12/19 01:43:56;;;;;;;0.82;0.43;;;;;;;6.75;100.00;103388.66;5050709;28;20095;-75
2021/12/19 01:46:22;;;;;;;6.07;1.50;;;;;;;6.70;100.00;103375.72;5042780;28;20034;-75
2021/12/19 01:48:47;;;;;;;0.90;0.43;;;;;;;6.72;100.00;103379.16;5049583;28;20032;-75
2021/12/19 01:51:13;;;;;;;2.47;0.57;;;;;;;6.72;100.00;103380.94;5043831;28;20025;-75
2021/12/19 01:53:38;;;;;;;2.85;0.75;;;;;;;6.69;100.00;103378.44;5049444;28;20431;-75
2021/12/19 01:56:05;;;;;;;2.58;0.68;;;;;;;6.60;100.00;103358.69;5048985;28;20029;-75
2021/12/19 01:58:31;;;;;;;3.05;0.43;;;;;;;6.67;100.00;103375.03;5048995;28;20077;-75
2021/12/19 02:00:57;;;;;;;4.43;0.88;;;;;;;6.61;100.00;103372.66;5053096;28;20029;-75
2021/12/19 02:03:24;;;;;;;3.63;0.55;;;;;;;6.59;100.00;103377.94;5060087;28;20049;-75
2021/12/19 02:05:49;;;;;;;1.42;0.45;;;;;;;6.55;100.00;103369.38;5039557;28;20038;-75
2021/12/19 02:08:16;;;;;;;0.38;0.28;;;;;;;6.49;100.00;103348.63;5047287;28;20098;-75
2021/12/19 02:10:42;;;;;;;0.90;0.40;;;;;;;6.55;100.00;103355.38;5061560;28;20021;-75
2021/12/19 02:13:10;;;;;;;1.38;0.40;;;;;;;6.58;100.00;103366.59;5048447;28;20063;-75
2021/12/19 02:15:36;;;;;;;1.38;0.45;;;;;;;6.57;100.00;103359.63;5053794;28;20124;-76
2021/12/19 02:18:10;;;;;;;5.47;0.80;;;;;;;6.60;100.00;103350.81;5037969;28;20401;-75
2021/12/19 02:20:38;;;;;;;6.40;0.88;;;;;;;6.54;100.00;103349.28;5043383;28;20025;-75
2021/12/19 02:23:04;;;;;;;5.78;0.98;;;;;;;6.60;100.00;103348.19;5053219;28;20433;-75
2021/12/19 02:25:30;;;;;;;2.05;0.60;;;;;;;6.57;100.00;103338.63;5043699;28;20124;-75
2021/12/19 02:27:58;;;;;;;6.13;1.10;;;;;;;6.57;100.00;103345.66;5049094;28;20047;-75
2021/12/19 02:30:24;;;;;;;3.38;1.05;;;;;;;6.56;100.00;103347.44;5046707;28;20026;-75
2021/12/19 02:32:50;;;;;;;5.88;0.73;;;;;;;6.54;100.00;103349.28;5046200;28;20045;-75
2021/12/19 02:35:21;;;;;;;1.63;0.82;;;;;;;6.59;100.00;103355.19;5052159;28;20052;-76
2021/12/19 02:38:30;;;;;;;;;;;;;;;6.53;100.00;103342.34;5042588;28;20040;-75
2021/12/19 02:48:29;;;;;;;3.47;0.63;;;;;;;6.57;100.00;103338.63;5038049;28;20036;-75
2021/12/19 02:50:55;;;;;;;1.20;0.70;;;;;;;6.60;100.00;103342.94;5052973;28;20028;-75
2021/12/19 02:53:28;;;;;;;6.15;1.30;;;;;;;6.56;100.00;103331.69;5044711;28;20408;-75
2021/12/19 02:55:54;;;;;;;1.58;0.73;;;;;;;6.48;100.00;103312.78;5055376;28;20029;-75
2021/12/19 02:58:19;;;;;;;1.85;0.60;;;;;;;6.59;100.00;103333.34;5036385;28;20040;-75
2021/12/19 03:00:45;;;;;;;3.60;1.30;;;;;;;6.52;100.00;103319.63;5030811;28;20428;-75
2021/12/19 03:03:10;;;;;;;1.25;0.50;;;;;;;6.59;100.00;103326.31;5049109;28;20041;-75
2021/12/19 03:05:37;;;;;;;2.40;0.70;;;;;;;6.55;100.00;103330.00;5031695;28;20063;-75
2021/12/19 03:08:03;;;;;;;2.45;0.82;;;;;;;6.45;100.00;103307.69;5041528;28;20033;-75
2021/12/19 03:18:37;;;;;;;5.05;1.80;;;;;;;6.59;100.00;103328.94;5038735;28;20433;-75
2021/12/19 03:21:03;;;;;;;4.90;2.00;;;;;;;6.55;100.00;103316.00;5043531;28;20099;-75
2021/12/19 03:23:28;;;;;;;6.10;1.15;;;;;;;6.61;100.00;103325.41;5044393;28;20033;-75
2021/12/19 03:25:53;;;;;;;3.65;1.02;;;;;;;6.61;100.00;103307.03;5046546;28;20043;-75
2021/12/19 03:28:19;;;;;;;4.53;1.52;;;;;;;6.63;100.00;103307.84;5049468;28;20071;-75
2021/12/19 03:30:46;;;;;;;4.82;1.17;;;;;;;6.56;100.00;103294.13;5032878;28;20028;-75
2021/12/19 03:33:12;;;;;;;7.25;1.50;;;;;;;6.66;100.00;103307.69;5049878;28;20124;-76
2021/12/19 03:35:39;;;;;;;11.77;1.30;;;;;;;6.68;100.00;103298.00;5055790;28;20029;-76
2021/12/19 03:38:07;;;;;;;2.75;1.20;;;;;;;6.64;100.00;103301.66;5039920;28;20033;-75
2021/12/19 03:40:36;;;;;;;4.35;0.88;;;;;;;6.66;100.00;103289.31;5048192;28;20734;-75
2021/12/19 03:43:06;;;;;;;2.67;1.10;;;;;;;6.50;100.00;103263.72;5048101;28;20065;-75
2021/12/19 03:45:34;;;;;;;3.78;0.85;;;;;;;6.63;100.00;103282.44;5040420;28;20033;-76
2021/12/19 03:48:00;;;;;;;4.85;1.08;;;;;;;6.65;100.00;103285.84;5043140;28;20029;-75
2021/12/19 03:50:26;;;;;;;15.45;1.65;;;;;;;6.66;100.00;103286.69;5043994;28;20017;-75
2021/12/19 03:52:54;;;;;;;7.30;1.10;;;;;;;6.59;100.00;103283.47;5046409;28;20033;-75
2021/12/19 03:55:21;;;;;;;8.05;2.20;;;;;;;6.47;100.00;103252.53;5041029;28;20079;-75
2021/12/19 03:57:47;;;;;;;6.97;2.22;;;;;;;6.62;100.00;103272.88;5052679;28;20068;-75
2021/12/19 04:00:22;;;;;;;4.47;2.00;;;;;;;6.58;100.00;103282.63;5050527;28;20030;-75
2021/12/19 04:02:48;;;;;;;17.02;2.17;;;;;;;6.61;100.00;103280.81;5043102;28;20037;-75
2021/12/19 04:05:13;;;;;;;7.35;2.47;;;;;;;6.61;100.00;103265.06;5041278;28;20484;-75
2021/12/19 04:07:39;;;;;;;5.38;1.67;;;;;;;6.68;100.00;103263.88;5044681;28;20033;-75
2021/12/19 04:10:05;;;;;;;8.57;2.85;;;;;;;6.55;100.00;103246.03;5033712;28;20497;-75
2021/12/19 04:12:31;;;;;;;6.25;2.10;;;;;;;6.57;100.00;103254.69;5018547;28;20040;-75
2021/12/19 04:14:56;;;;;;;5.88;2.08;;;;;;;6.55;100.00;103245.16;5031204;28;20021;-76
2021/12/19 04:17:22;;;;;;;17.35;3.00;;;;;;;6.63;100.00;103253.56;5042327;28;20045;-75
2021/12/19 04:19:47;;;;;;;9.63;2.22;;;;;;;6.59;100.00;103244.97;5038122;28;20029;-76
2021/12/19 04:22:13;;;;;;;9.07;2.35;;;;;;;6.63;100.00;103250.09;5033180;28;20056;-77
2021/12/19 04:24:38;;;;;;;8.90;2.45;;;;;;;6.64;100.00;103244.81;5048503;28;20092;-75
2021/12/19 04:27:04;;;;;;;8.77;2.63;;;;;;;6.73;100.00;103252.28;5035516;28;20439;-75
2021/12/19 04:29:29;;;;;;;11.73;3.17;;;;;;;6.75;100.00;103262.69;5040910;28;20033;-75
2021/12/19 04:31:55;;;;;;;6.75;2.45;;;;;;;6.71;100.00;103250.63;5046216;28;20039;-75
2021/12/19 04:34:22;;;;;;;13.15;3.28;;;;;;;6.70;100.00;103248.91;5037138;28;20792;-75
2021/12/19 04:36:53;;;;;;;13.75;3.40;;;;;;;6.79;100.00;103259.88;5038349;28;20473;-76
2021/12/19 04:39:26;;;;;;;11.88;3.15;;;;;;;6.79;100.00;103259.88;5041078;28;20116;-75
2021/12/19 04:53:15;;;;;;;14.45;4.10;;;;;;;6.80;100.00;103251.09;5043384;28;20040;-76
2021/12/19 05:04:12;;;;;;;12.88;4.07;;;;;;;6.77;100.00;103235.47;5021167;28;20128;-75
2021/12/19 05:14:35;;;;;;;12.77;4.70;;;;;;;6.83;100.00;103234.34;5040524;28;20060;-75
2021/12/19 05:17:06;;;;;;;12.55;3.58;;;;;;;6.76;100.00;103220.63;5035220;28;20557;-75
2021/12/19 05:19:44;;;;;;;12.45;4.30;;;;;;;6.85;100.00;103237.75;5045411;28;21702;-75
2021/12/19 05:22:10;;;;;;;12.50;4.30;;;;;;;6.77;100.00;103213.59;5042914;28;20049;-75
2021/12/19 05:27:11;;;;;;;14.50;4.10;;;;;;;6.76;100.00;103211.91;5048510;28;20102;-75
2021/12/19 05:29:37;;;;;;;13.80;4.35;;;;;;;6.83;100.00;103218.59;5047617;28;20600;-75
2021/12/19 05:32:04;;;;;;;14.25;3.58;;;;;;;6.81;100.00;103212.56;5036210;28;20055;-75
2021/12/19 05:34:30;;;;;;;17.77;4.18;;;;;;;6.79;100.00;103203.91;5054251;28;20032;-75
2021/12/19 05:45:12;;;;;;;10.55;3.83;;;;;;;6.60;100.00;103180.25;5052204;28;20060;-75
2021/12/19 05:47:39;;;;;;;8.93;2.92;;;;;;;6.69;100.00;103200.84;5047086;28;20025;-75
2021/12/19 05:50:05;;;;;;;10.90;3.08;;;;;;;6.73;100.00;103212.06;5037478;28;20040;-75
2021/12/19 05:52:31;;;;;;;18.00;3.63;;;;;;;6.70;100.00;103199.91;5035022;28;20037;-75
2021/12/19 05:54:57;;;;;;;14.27;3.50;;;;;;;6.76;100.00;103214.53;5039949;28;20052;-75
2021/12/19 05:57:22;;;;;;;9.65;2.78;;;;;;;6.66;100.00;103200.09;5035947;28;20376;-75
2021/12/19 05:59:48;;;;;;;9.70;2.63;;;;;;;6.63;100.00;103198.47;5041374;28;20045;-75
2021/12/19 06:02:14;;;;;;;12.88;2.67;;;;;;;6.54;100.00;103183.13;5033706;28;20040;-75
2021/12/19 06:04:39;;;;;;;8.40;2.92;;;;;;;6.74;100.00;103208.50;5045362;28;20041;-75
2021/12/19 06:07:04;;;;;;;4.80;1.88;;;;;;;6.74;100.00;103208.50;5023722;28;20032;-75
2021/12/19 06:09:30;;;;;;;3.78;1.33;;;;;;;6.69;100.00;103192.13;5041570;28;20520;-75
2021/12/19 06:11:55;;;;;;;6.32;1.60;;;;;;;6.75;100.00;103199.69;5040813;28;20405;-74
2021/12/19 06:14:22;;;;;;;4.65;1.40;;;;;;;6.72;100.00;103205.09;5048002;28;20136;-74
2021/12/19 06:16:48;;;;;;;6.28;1.63;;;;;;;6.74;100.00;103198.84;5040501;28;20479;-75
2021/12/19 06:19:13;;;;;;;6.20;1.13;;;;;;;6.72;100.00;103199.84;5042469;28;20103;-75
2021/12/19 06:21:38;;;;;;;13.50;2.25;;;;;;;6.72;100.00;103197.22;5038244;28;20106;-75
2021/12/19 06:24:04;;;;;;;9.10;1.70;;;;;;;6.69;100.00;103192.97;5047541;28;20048;-74
2021/12/19 06:26:32;;;;;;;8.27;1.55;;;;;;;6.69;100.00;103192.13;5038077;28;20073;-74
2021/12/19 06:28:57;;;;;;;6.00;2.03;;;;;;;6.69;100.00;103190.34;5038696;28;20082;-75
2021/12/19 06:31:23;;;;;;;8.25;1.77;;;;;;;6.66;100.00;103192.22;5037959;28;20040;-75
2021/12/19 06:33:48;;;;;;;5.32;1.33;;;;;;;6.60;100.00;103177.63;5042078;28;20037;-75
2021/12/19 06:36:13;;;;;;;7.97;1.55;;;;;;;6.65;100.00;103182.66;5028871;28;20145;-75
2021/12/19 06:38:39;;;;;;;8.30;1.52;;;;;;;6.66;100.00;103176.50;5042716;28;20049;-75
2021/12/19 06:41:04;;;;;;;8.63;1.40;;;;;;;6.68;100.00;103172.88;5041298;28;20041;-74
2021/12/19 06:43:32;;;;;;;3.00;1.08;;;;;;;6.67;100.00;103179.06;5046951;28;20195;-75
2021/12/19 06:45:58;;;;;;;8.07;1.48;;;;;;;6.62;100.00;103167.03;5035719;28;20026;-75
2021/12/19 06:48:24;;;;;;;22.33;2.20;;;;;;;6.66;100.00;103174.72;5045172;28;20366;-75
2021/12/19 06:50:51;;;;;;;8.77;1.58;;;;;;;6.65;100.00;103172.19;5044709;28;20036;-75
2021/12/19 06:53:16;;;;;;;3.88;1.17;;;;;;;6.67;100.00;103165.94;5040382;28;20029;-75
2021/12/19 06:55:42;;;;;;;8.32;1.75;;;;;;;6.65;100.00;103164.31;5044065;28;20035;-75
2021/12/19 06:58:07;;;;;;;5.45;1.30;;;;;;;6.65;100.00;103161.69;5045153;28;20033;-76
2021/12/19 07:00:33;;;;;;;13.45;2.00;;;;;;;6.70;100.00;103157.91;5042640;28;20044;-75
2021/12/19 07:02:58;;;;;;;12.70;2.08;;;;;;;6.69;100.00;103164.09;5038523;28;20999;-75
2021/12/19 07:05:24;;;;;;;9.10;1.45;;;;;;;6.70;100.00;103164.94;5046029;28;20041;-75
2021/12/19 07:07:49;;;;;;;6.10;1.70;;;;;;;6.74;100.00;103161.25;5035954;28;20401;-75
2021/12/19 07:10:15;;;;;;;5.85;1.98;;;;;;;6.57;100.00;103136.59;5037770;28;20764;-75
2021/12/19 07:12:40;;;;;;;11.32;1.90;;;;;;;6.72;100.00;103163.94;5027034;28;20034;-75
2021/12/19 07:15:06;;;;;;;3.13;1.48;;;;;;;6.76;100.00;103164.66;5048232;28;20064;-75
2021/12/19 07:17:32;;;;;;;11.93;1.33;;;;;;;6.74;100.00;103158.63;5039441;28;20045;-75
2021/12/19 07:19:58;;;;;;;4.53;1.38;;;;;;;6.62;100.00;103141.69;5043757;28;20028;-75
2021/12/19 07:22:24;;;;;;;4.93;1.10;;;;;;;6.69;100.00;103150.97;5039976;28;20041;-75
2021/12/19 07:24:49;;;;;;;4.25;1.88;;;;;;;6.76;100.00;103156.81;5038241;28;20037;-75
2021/12/19 07:27:15;;;;;;;8.90;2.33;;;;;;;6.62;100.00;103132.94;5037395;28;20032;-75
2021/12/19 07:29:41;;;;;;;9.18;1.73;;;;;;;6.74;100.00;103158.63;5024995;28;20155;-75
2021/12/19 07:32:07;;;;;;;6.22;1.48;;;;;;;6.74;100.00;103153.38;5039730;28;20083;-75
2021/12/19 07:34:36;;;;;;;11.00;2.67;;;;;;;6.70;100.00;103141.31;5036947;28;20090;-75
2021/12/19 07:37:01;;;;;;;10.05;1.55;;;;;;;6.78;100.00;103152.34;5036898;28;20029;-75
2021/12/19 07:39:39;;;;;;;10.30;1.67;;;;;;;6.78;100.00;103153.19;5040506;28;20037;-75
2021/12/19 07:42:10;;;;;;;7.22;1.67;;;;;;;6.76;100.00;103154.19;5045523;28;20035;-75
2021/12/19 07:44:38;;;;;;;9.98;1.77;;;;;;;6.61;100.00;103128.63;5037200;28;20034;-75
2021/12/19 07:47:06;;;;;;;12.77;1.70;;;;;;;6.78;100.00;103153.19;5028028;28;20082;-75
2021/12/19 07:49:32;;;;;;;9.07;2.50;;;;;;;6.78;100.00;103152.34;5045551;28;20037;-75
2021/12/19 07:51:57;;;;;;;10.95;2.00;;;;;;;6.77;100.00;103153.25;5037786;28;20429;-75
2021/12/19 07:54:23;;;;;;;5.63;1.55;;;;;;;6.68;100.00;103127.41;5046713;28;20029;-75
2021/12/19 07:56:48;;;;;;;7.03;1.95;;;;;;;6.68;100.00;103125.63;5044108;28;20036;-75
2021/12/19 07:59:14;;;;;;;8.15;1.55;;;;;;;6.78;100.00;103144.47;5041309;28;20040;-75
2021/12/19 08:01:40;;;;;;;4.93;1.58;;;;;;;6.76;100.00;103127.94;5038867;28;20033;-76
2021/12/19 08:04:06;;;;;;;10.52;1.75;;;;;;;6.79;100.00;103135.66;5040469;28;20064;-75
2021/12/19 08:06:32;;;;;;;10.02;1.77;;;;;;;6.80;100.00;103134.75;5040749;28;20037;-75
2021/12/19 08:09:06;;;;;;;10.30;2.08;;;;;;;6.78;100.00;103134.81;5045142;28;20040;-74
2021/12/19 08:11:42;;;;;;;11.02;1.67;;;;;;;6.79;100.00;103130.41;5043339;28;20029;-74
2021/12/19 08:14:13;;;;;;;11.73;2.35;;;;;;;6.77;100.00;103130.50;5056991;28;20846;-75
2021/12/19 08:16:40;;;;;;;6.80;1.58;;;;;;;6.81;100.00;103131.19;5036387;28;20025;-75
2021/12/19 08:19:05;;;;;;;6.20;1.40;;;;;;;6.79;100.00;103127.78;5040951;28;20077;-75
2021/12/19 08:21:31;;;;;;;8.85;2.22;;;;;;;6.65;100.00;103096.06;5041017;28;20465;-75
2021/12/19 08:24:01;;;;;;;7.53;1.85;;;;;;;6.80;100.00;103122.47;5022665;28;20499;-75
2021/12/19 08:26:26;;;;;;;16.20;2.53;;;;;;;6.73;100.00;103101.84;5039070;28;20067;-75
2021/12/19 08:28:52;;;;;;;10.00;1.95;;;;;;;6.87;100.00;103124.81;5036456;28;20029;-75
2021/12/19 08:31:18;;;;;;;5.25;1.40;;;;;;;6.82;100.00;103111.06;5044747;28;20060;-75
2021/12/19 08:33:43;;;;;;;16.35;2.03;;;;;;;6.72;100.00;103094.88;5039645;28;20573;-75
2021/12/19 08:36:09;;;;;;;5.70;1.80;;;;;;;6.91;100.00;103121.97;5047102;28;20115;-75
2021/12/19 08:38:34;;;;;;;7.20;2.05;;;;;;;6.87;100.00;103120.41;5040042;28;20063;-74
2021/12/19 08:41:00;;;;;;;4.28;1.10;;;;;;;6.82;100.00;103105.81;5037632;28;20710;-75
2021/12/19 08:43:26;;;;;;;9.50;1.73;;;;;;;6.93;100.00;103117.50;5041051;28;20048;-75
2021/12/19 08:45:51;;;;;;;9.90;1.63;;;;;;;6.94;100.00;103115.72;5045284;28;20037;-75
2021/12/19 08:48:18;;;;;;;8.45;1.20;;;;;;;6.97;100.00;103119.09;5041082;28;20025;-76
2021/12/19 08:50:44;;;;;;;4.57;1.33;;;;;;;6.99;100.00;103113.78;5045540;28;20087;-75
2021/12/19 08:53:10;;;;;;;9.05;1.63;;;;;;;7.02;100.00;103115.41;5041390;28;20047;-75
2021/12/19 08:55:35;;;;;;;10.38;1.67;;;;;;;7.00;100.00;103108.44;5043811;28;20037;-75
2021/12/19 08:58:01;;;;;;;8.15;1.95;;;;;;;6.81;100.00;103089.19;5043275;28;20039;-76
2021/12/19 09:00:26;;;;;;;8.68;1.75;;;;;;;7.00;100.00;103111.06;5014170;28;20044;-75
2021/12/19 09:02:55;;;;;;;7.18;1.88;;;;;;;7.00;100.00;103112.84;5044310;28;20053;-75
2021/12/19 09:05:21;;;;;;;7.72;1.45;;;;;;;7.03;100.00;103104.78;5043975;28;20028;-75
2021/12/19 09:07:47;;;;;;;7.30;1.42;;;;;;;7.08;100.00;103107.25;5045679;28;20040;-75
2021/12/19 09:10:12;;;;;;;7.45;1.40;;;;;;;6.95;100.00;103092.03;5030390;28;20054;-75
2021/12/19 09:12:38;;;;;;;10.13;1.77;;;;;;;7.04;100.00;103106.53;5039364;28;20405;-75
2021/12/19 09:15:04;;;;;;;3.22;1.83;;;;;;;7.11;100.00;103113.19;5032622;28;20057;-75
2021/12/19 09:17:30;;;;;;;12.00;2.40;;;;;;;6.98;100.00;103097.13;5047592;28;20124;-74
2021/12/19 09:19:56;;;;;;;6.70;1.60;;;;;;;7.07;100.00;103113.41;5028128;28;20136;-75
2021/12/19 09:22:21;;;;;;;7.97;1.42;;;;;;;7.10;100.00;103115.88;5041377;28;20025;-75
2021/12/19 09:24:47;;;;;;;9.05;1.77;;;;;;;6.98;100.00;103105.00;5041985;28;20074;-75
2021/12/19 09:27:13;;;;;;;5.30;1.48;;;;;;;7.03;100.00;103114.47;5045239;28;20032;-75
2021/12/19 09:29:38;;;;;;;6.95;1.33;;;;;;;7.10;100.00;103121.13;5040560;28;20072;-76
2021/12/19 09:32:04;;;;;;;4.70;0.90;;;;;;;6.95;100.00;103086.78;5042494;28;20040;-75
2021/12/19 09:34:30;;;;;;;5.90;0.80;;;;;;;7.17;100.00;103112.06;5041567;28;20099;-75
2021/12/19 09:36:56;;;;;;;2.40;0.98;;;;;;;6.95;100.00;103076.28;5056492;28;20143;-75
2021/12/19 09:39:24;;;;;;;4.22;1.13;;;;;;;6.78;100.00;103047.34;5045594;28;20037;-75
2021/12/19 09:41:57;;;;;;;2.10;0.70;;;;;;;7.21;100.00;103103.09;5045251;28;20025;-75
2021/12/19 09:44:22;;;;;;;6.32;1.10;;;;;;;7.24;100.00;103116.09;5044135;28;20077;-75
2021/12/19 09:46:49;;;;;;;6.30;1.15;;;;;;;7.08;100.00;103089.69;5038491;28;20069;-75
2021/12/19 09:49:17;;;;;;;6.70;1.67;;;;;;;7.23;100.00;103119.66;5042938;28;20041;-75
2021/12/19 09:51:42;;;;;;;10.65;1.45;;;;;;;7.25;100.00;103115.19;5046547;28;20399;-75
2021/12/19 09:54:10;;;;;;;9.80;1.23;;;;;;;7.16;100.00;103097.19;5040469;28;20092;-75
2021/12/19 09:56:36;;;;;;;3.97;0.82;;;;;;;7.26;100.00;103111.59;5045380;28;20056;-75
2021/12/19 09:59:06;;;;;;;9.07;1.40;;;;;;;6.99;100.00;103063.88;5039613;28;20060;-77
2021/12/19 10:01:31;;;;;;;14.80;1.63;;;;;;;7.33;100.00;103104.28;5041106;28;20067;-76
2021/12/19 10:03:57;;;;;;;10.30;1.23;;;;;;;7.27;100.00;103102.78;5047659;28;20081;-76
2021/12/19 10:06:25;;;;;;;9.38;1.48;;;;;;;7.24;100.00;103083.72;5050043;28;20090;-75
2021/12/19 10:09:12;;;;;;;10.65;1.58;;;;;;;7.24;100.00;103076.69;5042370;28;20032;-76
2021/12/19 10:14:25;;;;;;;9.93;2.53;;;;;;;7.37;100.00;103104.06;5044335;28;20041;-76
2021/12/19 10:16:51;;;;;;;5.05;1.33;;;;;;;7.39;100.00;103099.59;5040158;28;20132;-75
2021/12/19 10:19:16;;;;;;;11.82;1.35;;;;;;;7.38;100.00;103087.41;5043089;28;20037;-75
2021/12/19 10:21:42;;;;;;;6.00;1.55;;;;;;;7.41;100.00;103079.34;5028244;28;20055;-75
2021/12/19 10:24:09;;;;;;;14.90;1.58;;;;;;;7.30;100.00;103055.38;5043551;28;20079;-75
2021/12/19 10:26:44;;;;;;;8.55;1.73;;;;;;;7.49;100.00;103080.75;5044726;28;20055;-75
2021/12/19 10:29:10;;;;;;;7.78;1.88;;;;;;;7.45;100.00;103079.19;5043096;28;20025;-75
2021/12/19 10:31:37;;;;;;;16.65;1.70;;;;;;;7.51;100.00;103084.16;5043253;28;20026;-75
2021/12/19 10:34:23;;;;;;;8.18;1.88;;;;;;;7.52;100.00;103075.34;5045078;28;20040;-75
2021/12/19 10:36:49;;;;;;;7.07;2.22;;;;;;;7.51;100.00;103068.38;5040761;28;20032;-75
2021/12/19 10:39:17;;;;;;;9.93;1.65;;;;;;;7.52;100.00;103059.59;5025616;28;20436;-74
2021/12/19 10:41:43;;;;;;;8.60;1.38;;;;;;;7.39;100.00;103036.53;5041759;28;20041;-76
2021/12/19 10:45:29;;;;;;;13.52;1.48;;;;;;;7.38;100.00;103028.72;5046124;28;20052;-75
2021/12/19 10:47:35;;;;;;;8.02;1.25;;;;;;;7.55;100.00;103049.75;5035081;28;20060;-74
2021/12/19 10:50:01;;;;;;;13.90;2.58;;;;;;;7.53;100.00;103037.63;5051426;28;20441;-74
2021/12/19 10:52:32;;;;;;;13.65;1.63;;;;;;;7.51;100.00;103037.72;5037096;28;20037;-74
2021/12/19 10:54:59;;;;;;;9.27;2.05;;;;;;;7.56;100.00;103040.13;5023132;28;20043;-76
2021/12/19 10:57:34;;;;;;;13.93;2.10;;;;;;;7.53;100.00;103030.59;5038910;28;20154;-76
2021/12/19 11:00:04;;;;;;;11.30;1.63;;;;;;;7.56;100.00;103017.31;5033463;28;20389;-75
2021/12/19 11:02:41;;;;;;;5.97;1.35;;;;;;;7.57;100.00;103011.13;5035861;28;20588;-76
2021/12/19 11:05:35;;;;;;;8.35;1.70;;;;;;;7.65;100.00;103017.78;5035011;28;20045;-74
2021/12/19 11:08:06;;;;;;;8.38;2.35;;;;;;;7.66;100.00;103007.16;5036226;28;20028;-76
2021/12/19 11:10:32;;;;;;;15.02;1.80;;;;;;;7.66;100.00;103003.69;5046023;28;20033;-75
2021/12/19 11:13:10;;;;;;;6.85;1.42;;;;;;;7.65;100.00;103002.84;5038403;28;20111;-75
2021/12/19 11:15:36;;;;;;;11.95;2.40;;;;;;;7.66;100.00;102998.44;5039169;28;20029;-75
2021/12/19 11:18:02;;;;;;;12.43;2.35;;;;;;;7.71;100.00;102997.28;5029512;28;20037;-75
2021/12/19 11:20:27;;;;;;;10.43;1.95;;;;;;;7.73;100.00;102992.81;5037497;28;20029;-74
2021/12/19 11:22:54;;;;;;;11.32;1.77;;;;;;;7.76;100.00;102992.63;5035875;28;20029;-76
2021/12/19 11:25:20;;;;;;;11.32;1.50;;;;;;;7.75;100.00;102977.81;5039816;28;20131;-76
2021/12/19 11:27:46;;;;;;;11.73;2.17;;;;;;;7.76;100.00;102974.25;5046790;28;20037;-76
2021/12/19 11:30:14;;;;;;;10.02;1.90;;;;;;;7.76;100.00;102971.59;5041205;28;20504;-75
2021/12/19 11:32:55;;;;;;;14.77;2.75;;;;;;;7.82;100.00;102976.56;5044848;28;20017;-75
2021/12/19 11:35:26;;;;;;;11.30;1.75;;;;;;;7.64;100.00;102948.56;5042397;28;20363;-77
2021/12/19 11:37:57;;;;;;;8.70;1.33;;;;;;;7.84;100.00;102979.13;5039647;28;20091;-75
2021/12/19 11:40:23;;;;;;;;;;;;;;;7.81;99.93;102966.09;5039299;28;20033;-75
2021/12/19 11:42:49;;;;;;;9.95;2.35;;;;;;;7.78;100.00;102975.00;5038228;28;19931;-75
2021/12/19 11:45:42;;;;;;;16.90;2.63;;;;;;;7.85;100.00;102972.06;5048728;28;20041;-75
2021/12/19 11:48:25;;;;;;;8.10;1.50;;;;;;;7.87;100.00;102970.22;5050296;28;20032;-77
2021/12/19 11:51:15;;;;;;;11.43;1.63;;;;;;;7.86;99.53;102968.50;5046445;28;20031;-77
2021/12/19 11:53:43;;;;;;;8.00;1.77;;;;;;;7.85;100.00;102965.03;5040586;28;20563;-76
2021/12/19 11:56:11;;;;;;;8.60;2.25;;;;;;;7.87;99.32;102967.59;5059106;28;20064;-76
2021/12/19 11:58:46;;;;;;;9.07;1.55;;;;;;;7.83;99.16;102964.25;5039592;28;20040;-75
2021/12/19 12:01:13;;;;;;;15.05;2.00;;;;;;;7.78;99.19;102956.59;5043702;28;20033;-76
2021/12/19 12:03:42;;;;;;;7.55;1.60;;;;;;;7.87;100.00;102957.06;5044120;28;20051;-77
2021/12/19 12:06:17;;;;;;;10.23;1.85;;;;;;;7.89;100.00;102960.47;5035416;28;20343;-76
2021/12/19 12:09:15;;;;;;;8.10;1.25;;;;;;;7.88;100.00;102951.69;5058990;28;20090;-75
2021/12/19 12:12:01;;;;;;;6.88;1.25;;;;;;;7.92;100.00;102936.63;5042234;28;20032;-77
2021/12/19 12:14:30;;;;;;;6.53;1.48;;;;;;;7.89;100.00;102947.31;5038726;28;20555;-75
2021/12/19 12:16:59;;;;;;;12.88;2.03;;;;;;;7.86;100.00;102932.56;5047611;28;20048;-76
2021/12/19 12:20:00;;;;;;;6.03;1.40;;;;;;;7.85;100.00;102945.78;5038022;28;20524;-77
2021/12/19 12:22:35;;;;;;;5.40;1.02;;;;;;;7.83;100.00;102928.28;4957459;28;20043;-77
2021/12/19 12:25:20;;;;;;;17.63;1.98;;;;;;;7.50;98.39;102880.13;4945932;28;20388;-77
2021/12/19 12:27:56;;;;;;;6.63;1.25;;;;;;;7.74;98.13;102913.00;4966584;28;20034;-77
2021/12/19 12:30:26;;;;;;;7.68;1.92;;;;;;;7.80;98.69;102917.94;4967165;28;20034;-77
2021/12/19 12:32:53;;;;;;;9.07;1.65;;;;;;;7.73;98.12;102906.06;4957458;28;20042;-77